sensor_id;sensor_type;location;lat;lon;timestamp;P1;durP1;ratioP1;P2;durP2;ratioP2
61635;SDS011;59438;45.014;39.006;2023-01-28T00:01:40;49.97;;;19.38;;
61635;SDS011;59438;45.014;39.006;2023-01-28T00:04:08;45.83;;;16.52;;
61635;SDS011;59438;45.014;39.006;2023-01-28T00:06:35;26.65;;;11.93;;
61635;SDS011;59438;45.014;39.006;2023-01-28T00:09:02;39.03;;;15.25;;
61635;SDS011;59438;45.014;39.006;2023-01-28T00:14:10;29.85;;;11.85;;
61635;SDS011;59438;45.014;39.006;2023-01-28T00:16:37;28.83;;;11.98;;
61635;SDS011;59438;45.014;39.006;2023-01-28T00:19:03;62.10;;;23.00;;
61635;SDS011;59438;45.014;39.006;2023-01-28T00:21:30;40.33;;;16.25;;
61635;SDS011;59438;45.014;39.006;2023-01-28T00:23:56;41.92;;;16.95;;
61635;SDS011;59438;45.014;39.006;2023-01-28T00:26:23;33.75;;;13.15;;
61635;SDS011;59438;45.014;39.006;2023-01-28T00:28:51;29.50;;;12.95;;
61635;SDS011;59438;45.014;39.006;2023-01-28T00:31:18;29.73;;;11.73;;
61635;SDS011;59438;45.014;39.006;2023-01-28T00:33:50;28.58;;;10.85;;
61635;SDS011;59438;45.014;39.006;2023-01-28T00:36:18;35.65;;;14.40;;
61635;SDS011;59438;45.014;39.006;2023-01-28T00:38:48;32.50;;;14.98;;
61635;SDS011;59438;45.014;39.006;2023-01-28T00:41:15;31.13;;;11.98;;
61635;SDS011;59438;45.014;39.006;2023-01-28T00:43:43;37.67;;;16.45;;
61635;SDS011;59438;45.014;39.006;2023-01-28T00:46:11;40.10;;;17.15;;
61635;SDS011;59438;45.014;39.006;2023-01-28T00:48:38;45.53;;;17.83;;
61635;SDS011;59438;45.014;39.006;2023-01-28T00:51:05;24.38;;;10.52;;
61635;SDS011;59438;45.014;39.006;2023-01-28T00:53:32;20.60;;;9.23;;
61635;SDS011;59438;45.014;39.006;2023-01-28T00:55:59;25.10;;;10.52;;
61635;SDS011;59438;45.014;39.006;2023-01-28T00:58:25;29.52;;;12.85;;
61635;SDS011;59438;45.014;39.006;2023-01-28T01:00:52;34.08;;;14.48;;
61635;SDS011;59438;45.014;39.006;2023-01-28T01:03:19;30.83;;;14.93;;
61635;SDS011;59438;45.014;39.006;2023-01-28T01:05:46;43.75;;;17.35;;
61635;SDS011;59438;45.014;39.006;2023-01-28T01:08:12;24.63;;;10.65;;
61635;SDS011;59438;45.014;39.006;2023-01-28T01:10:39;30.90;;;11.95;;
61635;SDS011;59438;45.014;39.006;2023-01-28T01:13:05;29.27;;;13.02;;
61635;SDS011;59438;45.014;39.006;2023-01-28T01:15:32;39.25;;;14.35;;
61635;SDS011;59438;45.014;39.006;2023-01-28T01:17:59;24.40;;;10.93;;
61635;SDS011;59438;45.014;39.006;2023-01-28T01:20:27;24.55;;;12.02;;
61635;SDS011;59438;45.014;39.006;2023-01-28T01:22:54;25.23;;;11.27;;
61635;SDS011;59438;45.014;39.006;2023-01-28T01:25:21;28.95;;;12.52;;
61635;SDS011;59438;45.014;39.006;2023-01-28T01:27:48;28.65;;;12.15;;
61635;SDS011;59438;45.014;39.006;2023-01-28T01:30:14;29.00;;;12.75;;
61635;SDS011;59438;45.014;39.006;2023-01-28T01:32:41;27.42;;;11.15;;
61635;SDS011;59438;45.014;39.006;2023-01-28T01:35:08;21.75;;;10.90;;
61635;SDS011;59438;45.014;39.006;2023-01-28T01:37:37;26.30;;;11.43;;
61635;SDS011;59438;45.014;39.006;2023-01-28T01:40:03;29.98;;;11.50;;
61635;SDS011;59438;45.014;39.006;2023-01-28T01:42:30;23.05;;;11.05;;
61635;SDS011;59438;45.014;39.006;2023-01-28T01:44:58;25.55;;;11.75;;
61635;SDS011;59438;45.014;39.006;2023-01-28T01:47:28;24.52;;;10.27;;
61635;SDS011;59438;45.014;39.006;2023-01-28T01:50:02;25.65;;;12.02;;
61635;SDS011;59438;45.014;39.006;2023-01-28T01:52:33;28.13;;;11.80;;
61635;SDS011;59438;45.014;39.006;2023-01-28T01:55:03;31.38;;;11.88;;
61635;SDS011;59438;45.014;39.006;2023-01-28T01:57:34;25.30;;;11.52;;
61635;SDS011;59438;45.014;39.006;2023-01-28T02:00:02;24.48;;;11.25;;
61635;SDS011;59438;45.014;39.006;2023-01-28T02:02:31;27.88;;;12.48;;
61635;SDS011;59438;45.014;39.006;2023-01-28T02:05:01;25.30;;;11.77;;
61635;SDS011;59438;45.014;39.006;2023-01-28T02:07:28;28.27;;;12.15;;
61635;SDS011;59438;45.014;39.006;2023-01-28T02:09:55;27.80;;;12.70;;
61635;SDS011;59438;45.014;39.006;2023-01-28T02:12:24;25.65;;;11.73;;
61635;SDS011;59438;45.014;39.006;2023-01-28T02:14:55;28.02;;;11.73;;
61635;SDS011;59438;45.014;39.006;2023-01-28T02:19:52;25.77;;;11.20;;
61635;SDS011;59438;45.014;39.006;2023-01-28T02:22:28;21.52;;;10.45;;
61635;SDS011;59438;45.014;39.006;2023-01-28T02:28:20;21.55;;;10.45;;
61635;SDS011;59438;45.014;39.006;2023-01-28T02:30:53;26.00;;;11.15;;
61635;SDS011;59438;45.014;39.006;2023-01-28T02:33:25;27.98;;;12.63;;
61635;SDS011;59438;45.014;39.006;2023-01-28T02:35:57;22.73;;;10.75;;
61635;SDS011;59438;45.014;39.006;2023-01-28T02:38:35;26.52;;;11.30;;
61635;SDS011;59438;45.014;39.006;2023-01-28T02:41:07;27.67;;;11.43;;
61635;SDS011;59438;45.014;39.006;2023-01-28T02:43:40;28.17;;;12.30;;
61635;SDS011;59438;45.014;39.006;2023-01-28T02:46:14;28.17;;;12.30;;
61635;SDS011;59438;45.014;39.006;2023-01-28T02:48:45;26.17;;;10.93;;
61635;SDS011;59438;45.014;39.006;2023-01-28T02:51:14;23.13;;;10.63;;
61635;SDS011;59438;45.014;39.006;2023-01-28T02:56:23;27.83;;;11.27;;
61635;SDS011;59438;45.014;39.006;2023-01-28T02:59:02;26.35;;;10.82;;
61635;SDS011;59438;45.014;39.006;2023-01-28T03:01:34;25.25;;;11.13;;
61635;SDS011;59438;45.014;39.006;2023-01-28T03:04:08;21.45;;;10.52;;
61635;SDS011;59438;45.014;39.006;2023-01-28T03:06:43;30.25;;;11.70;;
61635;SDS011;59438;45.014;39.006;2023-01-28T03:09:13;25.27;;;11.70;;
61635;SDS011;59438;45.014;39.006;2023-01-28T03:11:43;21.20;;;11.18;;
61635;SDS011;59438;45.014;39.006;2023-01-28T03:14:14;26.90;;;11.15;;
61635;SDS011;59438;45.014;39.006;2023-01-28T03:16:43;26.42;;;11.38;;
61635;SDS011;59438;45.014;39.006;2023-01-28T03:19:10;24.30;;;11.32;;
61635;SDS011;59438;45.014;39.006;2023-01-28T03:21:37;25.48;;;12.00;;
61635;SDS011;59438;45.014;39.006;2023-01-28T03:24:08;31.10;;;11.70;;
61635;SDS011;59438;45.014;39.006;2023-01-28T03:26:40;30.73;;;12.10;;
61635;SDS011;59438;45.014;39.006;2023-01-28T03:29:11;30.67;;;11.15;;
61635;SDS011;59438;45.014;39.006;2023-01-28T03:31:41;26.15;;;12.00;;
61635;SDS011;59438;45.014;39.006;2023-01-28T03:34:08;30.90;;;10.85;;
61635;SDS011;59438;45.014;39.006;2023-01-28T03:36:36;28.75;;;10.95;;
61635;SDS011;59438;45.014;39.006;2023-01-28T03:39:02;30.67;;;12.43;;
61635;SDS011;59438;45.014;39.006;2023-01-28T03:41:29;31.02;;;11.88;;
61635;SDS011;59438;45.014;39.006;2023-01-28T03:43:55;30.60;;;12.07;;
61635;SDS011;59438;45.014;39.006;2023-01-28T03:46:21;26.75;;;12.23;;
61635;SDS011;59438;45.014;39.006;2023-01-28T03:48:49;23.35;;;11.73;;
61635;SDS011;59438;45.014;39.006;2023-01-28T03:51:16;26.63;;;11.05;;
61635;SDS011;59438;45.014;39.006;2023-01-28T03:53:42;27.58;;;11.80;;
61635;SDS011;59438;45.014;39.006;2023-01-28T03:56:08;27.58;;;11.38;;
61635;SDS011;59438;45.014;39.006;2023-01-28T03:58:35;32.17;;;12.40;;
61635;SDS011;59438;45.014;39.006;2023-01-28T04:01:01;28.92;;;12.32;;
61635;SDS011;59438;45.014;39.006;2023-01-28T04:03:27;27.52;;;11.57;;
61635;SDS011;59438;45.014;39.006;2023-01-28T04:05:59;26.58;;;11.52;;
61635;SDS011;59438;45.014;39.006;2023-01-28T04:08:26;28.73;;;12.20;;
61635;SDS011;59438;45.014;39.006;2023-01-28T04:10:55;31.48;;;12.07;;
61635;SDS011;59438;45.014;39.006;2023-01-28T04:13:22;25.00;;;12.00;;
61635;SDS011;59438;45.014;39.006;2023-01-28T04:15:49;29.95;;;11.63;;
61635;SDS011;59438;45.014;39.006;2023-01-28T04:18:15;31.73;;;12.30;;
61635;SDS011;59438;45.014;39.006;2023-01-28T04:20:41;30.95;;;12.50;;
61635;SDS011;59438;45.014;39.006;2023-01-28T04:23:09;40.08;;;13.07;;
61635;SDS011;59438;45.014;39.006;2023-01-28T04:25:35;26.58;;;11.85;;
61635;SDS011;59438;45.014;39.006;2023-01-28T04:28:02;33.58;;;12.73;;
61635;SDS011;59438;45.014;39.006;2023-01-28T04:30:28;27.92;;;11.93;;
61635;SDS011;59438;45.014;39.006;2023-01-28T04:32:55;28.13;;;12.13;;
61635;SDS011;59438;45.014;39.006;2023-01-28T04:35:21;32.88;;;12.60;;
61635;SDS011;59438;45.014;39.006;2023-01-28T04:37:47;30.08;;;12.50;;
61635;SDS011;59438;45.014;39.006;2023-01-28T04:40:16;34.60;;;13.30;;
61635;SDS011;59438;45.014;39.006;2023-01-28T04:42:42;34.50;;;13.02;;
61635;SDS011;59438;45.014;39.006;2023-01-28T04:45:18;34.67;;;12.65;;
61635;SDS011;59438;45.014;39.006;2023-01-28T04:47:44;29.38;;;12.75;;
61635;SDS011;59438;45.014;39.006;2023-01-28T04:50:10;37.70;;;12.63;;
61635;SDS011;59438;45.014;39.006;2023-01-28T04:52:36;33.63;;;12.65;;
61635;SDS011;59438;45.014;39.006;2023-01-28T04:55:03;36.20;;;13.52;;
61635;SDS011;59438;45.014;39.006;2023-01-28T04:57:31;29.70;;;13.32;;
61635;SDS011;59438;45.014;39.006;2023-01-28T04:59:58;36.92;;;13.82;;
61635;SDS011;59438;45.014;39.006;2023-01-28T05:02:24;44.03;;;12.52;;
61635;SDS011;59438;45.014;39.006;2023-01-28T05:04:50;39.00;;;13.45;;
61635;SDS011;59438;45.014;39.006;2023-01-28T05:07:17;37.30;;;12.52;;
61635;SDS011;59438;45.014;39.006;2023-01-28T05:09:43;33.72;;;12.70;;
61635;SDS011;59438;45.014;39.006;2023-01-28T05:12:09;37.28;;;13.48;;
61635;SDS011;59438;45.014;39.006;2023-01-28T05:14:37;38.88;;;13.00;;
61635;SDS011;59438;45.014;39.006;2023-01-28T05:17:03;35.38;;;13.15;;
61635;SDS011;59438;45.014;39.006;2023-01-28T05:19:30;36.63;;;13.95;;
61635;SDS011;59438;45.014;39.006;2023-01-28T05:21:56;37.15;;;14.63;;
61635;SDS011;59438;45.014;39.006;2023-01-28T05:24:22;35.17;;;14.25;;
61635;SDS011;59438;45.014;39.006;2023-01-28T05:26:49;34.25;;;13.32;;
61635;SDS011;59438;45.014;39.006;2023-01-28T05:29:15;30.10;;;13.48;;
61635;SDS011;59438;45.014;39.006;2023-01-28T05:31:43;30.58;;;13.02;;
61635;SDS011;59438;45.014;39.006;2023-01-28T05:34:09;39.08;;;13.57;;
61635;SDS011;59438;45.014;39.006;2023-01-28T05:36:36;30.00;;;13.57;;
61635;SDS011;59438;45.014;39.006;2023-01-28T05:39:02;36.10;;;14.80;;
61635;SDS011;59438;45.014;39.006;2023-01-28T05:41:28;31.42;;;13.35;;
61635;SDS011;59438;45.014;39.006;2023-01-28T05:43:55;32.85;;;12.32;;
61635;SDS011;59438;45.014;39.006;2023-01-28T05:46:21;33.45;;;13.13;;
61635;SDS011;59438;45.014;39.006;2023-01-28T05:48:49;37.95;;;13.35;;
61635;SDS011;59438;45.014;39.006;2023-01-28T05:51:15;36.97;;;13.20;;
61635;SDS011;59438;45.014;39.006;2023-01-28T05:53:41;39.22;;;13.80;;
61635;SDS011;59438;45.014;39.006;2023-01-28T05:56:08;30.88;;;12.45;;
61635;SDS011;59438;45.014;39.006;2023-01-28T05:58:34;32.22;;;12.60;;
61635;SDS011;59438;45.014;39.006;2023-01-28T06:01:00;31.48;;;12.90;;
61635;SDS011;59438;45.014;39.006;2023-01-28T06:03:27;33.38;;;12.63;;
61635;SDS011;59438;45.014;39.006;2023-01-28T06:05:55;32.45;;;13.07;;
61635;SDS011;59438;45.014;39.006;2023-01-28T06:08:21;39.80;;;13.40;;
61635;SDS011;59438;45.014;39.006;2023-01-28T06:10:47;38.55;;;13.95;;
61635;SDS011;59438;45.014;39.006;2023-01-28T06:13:14;33.65;;;14.25;;
61635;SDS011;59438;45.014;39.006;2023-01-28T06:15:40;37.10;;;13.02;;
61635;SDS011;59438;45.014;39.006;2023-01-28T06:18:06;41.35;;;13.95;;
61635;SDS011;59438;45.014;39.006;2023-01-28T06:20:33;36.83;;;13.85;;
61635;SDS011;59438;45.014;39.006;2023-01-28T06:23:00;32.70;;;12.15;;
61635;SDS011;59438;45.014;39.006;2023-01-28T06:25:27;34.13;;;14.15;;
61635;SDS011;59438;45.014;39.006;2023-01-28T06:27:53;36.42;;;14.80;;
61635;SDS011;59438;45.014;39.006;2023-01-28T06:30:19;29.73;;;12.68;;
61635;SDS011;59438;45.014;39.006;2023-01-28T06:32:46;35.13;;;13.85;;
61635;SDS011;59438;45.014;39.006;2023-01-28T06:35:12;42.95;;;15.23;;
61635;SDS011;59438;45.014;39.006;2023-01-28T06:37:38;35.38;;;15.27;;
61635;SDS011;59438;45.014;39.006;2023-01-28T06:40:07;33.20;;;13.77;;
61635;SDS011;59438;45.014;39.006;2023-01-28T06:42:34;31.17;;;14.00;;
61635;SDS011;59438;45.014;39.006;2023-01-28T06:45:00;59.63;;;16.58;;
61635;SDS011;59438;45.014;39.006;2023-01-28T06:47:27;34.72;;;14.68;;
61635;SDS011;59438;45.014;39.006;2023-01-28T06:49:53;36.67;;;16.52;;
61635;SDS011;59438;45.014;39.006;2023-01-28T06:52:19;41.10;;;16.38;;
61635;SDS011;59438;45.014;39.006;2023-01-28T06:54:46;40.50;;;14.95;;
61635;SDS011;59438;45.014;39.006;2023-01-28T06:57:14;44.40;;;16.15;;
61635;SDS011;59438;45.014;39.006;2023-01-28T06:59:40;39.50;;;15.07;;
61635;SDS011;59438;45.014;39.006;2023-01-28T07:02:08;47.58;;;15.18;;
61635;SDS011;59438;45.014;39.006;2023-01-28T07:04:35;43.90;;;16.73;;
61635;SDS011;59438;45.014;39.006;2023-01-28T07:07:04;48.30;;;17.17;;
61635;SDS011;59438;45.014;39.006;2023-01-28T07:09:31;57.00;;;17.88;;
61635;SDS011;59438;45.014;39.006;2023-01-28T07:11:57;43.95;;;17.45;;
61635;SDS011;59438;45.014;39.006;2023-01-28T07:14:25;39.63;;;16.10;;
61635;SDS011;59438;45.014;39.006;2023-01-28T07:16:52;46.35;;;16.35;;
61635;SDS011;59438;45.014;39.006;2023-01-28T07:19:18;39.08;;;14.90;;
61635;SDS011;59438;45.014;39.006;2023-01-28T07:21:44;40.70;;;15.65;;
61635;SDS011;59438;45.014;39.006;2023-01-28T07:24:11;36.63;;;14.95;;
61635;SDS011;59438;45.014;39.006;2023-01-28T07:26:37;33.05;;;15.18;;
61635;SDS011;59438;45.014;39.006;2023-01-28T07:29:03;42.65;;;16.67;;
61635;SDS011;59438;45.014;39.006;2023-01-28T07:31:31;38.22;;;15.20;;
61635;SDS011;59438;45.014;39.006;2023-01-28T07:33:57;43.22;;;15.30;;
61635;SDS011;59438;45.014;39.006;2023-01-28T07:36:24;34.30;;;14.38;;
61635;SDS011;59438;45.014;39.006;2023-01-28T07:38:50;32.80;;;14.65;;
61635;SDS011;59438;45.014;39.006;2023-01-28T07:41:17;32.75;;;13.13;;
61635;SDS011;59438;45.014;39.006;2023-01-28T07:43:43;38.65;;;15.23;;
61635;SDS011;59438;45.014;39.006;2023-01-28T07:46:09;32.72;;;14.40;;
61635;SDS011;59438;45.014;39.006;2023-01-28T07:48:37;33.55;;;13.77;;
61635;SDS011;59438;45.014;39.006;2023-01-28T07:51:04;36.80;;;14.52;;
61635;SDS011;59438;45.014;39.006;2023-01-28T07:53:30;36.75;;;15.07;;
61635;SDS011;59438;45.014;39.006;2023-01-28T07:55:59;29.95;;;14.65;;
61635;SDS011;59438;45.014;39.006;2023-01-28T07:58:26;36.47;;;14.27;;
61635;SDS011;59438;45.014;39.006;2023-01-28T08:00:55;39.08;;;15.52;;
61635;SDS011;59438;45.014;39.006;2023-01-28T08:03:21;38.70;;;14.88;;
61635;SDS011;59438;45.014;39.006;2023-01-28T08:05:50;38.42;;;15.70;;
61635;SDS011;59438;45.014;39.006;2023-01-28T08:08:18;37.17;;;16.08;;
61635;SDS011;59438;45.014;39.006;2023-01-28T08:10:44;37.40;;;16.17;;
61635;SDS011;59438;45.014;39.006;2023-01-28T08:13:11;40.00;;;15.63;;
61635;SDS011;59438;45.014;39.006;2023-01-28T08:15:39;33.95;;;15.73;;
61635;SDS011;59438;45.014;39.006;2023-01-28T08:18:05;38.03;;;15.35;;
61635;SDS011;59438;45.014;39.006;2023-01-28T08:20:33;42.28;;;15.23;;
61635;SDS011;59438;45.014;39.006;2023-01-28T08:23:05;38.28;;;15.60;;
61635;SDS011;59438;45.014;39.006;2023-01-28T08:25:32;37.50;;;14.45;;
61635;SDS011;59438;45.014;39.006;2023-01-28T08:27:59;46.03;;;16.42;;
61635;SDS011;59438;45.014;39.006;2023-01-28T08:30:25;34.58;;;14.57;;
61635;SDS011;59438;45.014;39.006;2023-01-28T08:32:54;38.78;;;14.88;;
61635;SDS011;59438;45.014;39.006;2023-01-28T08:35:20;36.00;;;14.98;;
61635;SDS011;59438;45.014;39.006;2023-01-28T08:37:47;49.97;;;15.48;;
61635;SDS011;59438;45.014;39.006;2023-01-28T08:40:15;33.10;;;14.50;;
61635;SDS011;59438;45.014;39.006;2023-01-28T08:42:45;37.00;;;14.02;;
61635;SDS011;59438;45.014;39.006;2023-01-28T08:45:12;32.88;;;14.68;;
61635;SDS011;59438;45.014;39.006;2023-01-28T08:47:46;42.25;;;15.27;;
61635;SDS011;59438;45.014;39.006;2023-01-28T08:50:12;37.80;;;14.82;;
61635;SDS011;59438;45.014;39.006;2023-01-28T08:52:39;30.70;;;13.18;;
61635;SDS011;59438;45.014;39.006;2023-01-28T08:55:05;34.13;;;14.80;;
61635;SDS011;59438;45.014;39.006;2023-01-28T08:57:37;39.63;;;14.93;;
61635;SDS011;59438;45.014;39.006;2023-01-28T09:00:04;33.50;;;13.82;;
61635;SDS011;59438;45.014;39.006;2023-01-28T09:02:32;26.98;;;12.55;;
61635;SDS011;59438;45.014;39.006;2023-01-28T09:04:58;28.02;;;13.40;;
61635;SDS011;59438;45.014;39.006;2023-01-28T09:07:24;25.23;;;12.30;;
61635;SDS011;59438;45.014;39.006;2023-01-28T09:09:51;25.83;;;12.38;;
61635;SDS011;59438;45.014;39.006;2023-01-28T09:12:17;30.45;;;13.38;;
61635;SDS011;59438;45.014;39.006;2023-01-28T09:14:45;29.13;;;12.50;;
61635;SDS011;59438;45.014;39.006;2023-01-28T09:17:11;30.38;;;11.85;;
61635;SDS011;59438;45.014;39.006;2023-01-28T09:19:38;33.30;;;14.05;;
61635;SDS011;59438;45.014;39.006;2023-01-28T09:22:04;34.60;;;12.85;;
61635;SDS011;59438;45.014;39.006;2023-01-28T09:24:31;40.22;;;15.02;;
61635;SDS011;59438;45.014;39.006;2023-01-28T09:26:57;35.42;;;14.63;;
61635;SDS011;59438;45.014;39.006;2023-01-28T09:29:23;41.83;;;15.32;;
61635;SDS011;59438;45.014;39.006;2023-01-28T09:31:51;35.47;;;14.93;;
61635;SDS011;59438;45.014;39.006;2023-01-28T09:34:18;105.10;;;58.47;;
61635;SDS011;59438;45.014;39.006;2023-01-28T09:36:44;67.93;;;34.92;;
61635;SDS011;59438;45.014;39.006;2023-01-28T09:39:10;74.68;;;41.63;;
61635;SDS011;59438;45.014;39.006;2023-01-28T09:41:40;61.03;;;32.85;;
61635;SDS011;59438;45.014;39.006;2023-01-28T09:44:29;54.40;;;24.50;;
61635;SDS011;59438;45.014;39.006;2023-01-28T09:47:11;39.00;;;17.35;;
61635;SDS011;59438;45.014;39.006;2023-01-28T09:49:44;69.93;;;29.40;;
61635;SDS011;59438;45.014;39.006;2023-01-28T09:52:14;41.05;;;16.55;;
61635;SDS011;59438;45.014;39.006;2023-01-28T09:54:44;36.67;;;16.60;;
61635;SDS011;59438;45.014;39.006;2023-01-28T09:57:12;29.88;;;14.80;;
61635;SDS011;59438;45.014;39.006;2023-01-28T09:59:44;36.22;;;14.35;;
61635;SDS011;59438;45.014;39.006;2023-01-28T10:02:20;36.13;;;14.98;;
61635;SDS011;59438;45.014;39.006;2023-01-28T10:04:58;43.08;;;14.27;;
61635;SDS011;59438;45.014;39.006;2023-01-28T10:07:33;34.05;;;15.18;;
61635;SDS011;59438;45.014;39.006;2023-01-28T10:10:08;31.05;;;13.80;;
61635;SDS011;59438;45.014;39.006;2023-01-28T10:12:54;32.20;;;15.02;;
61635;SDS011;59438;45.014;39.006;2023-01-28T10:15:40;37.42;;;14.20;;
61635;SDS011;59438;45.014;39.006;2023-01-28T10:18:32;30.25;;;15.02;;
61635;SDS011;59438;45.014;39.006;2023-01-28T10:21:04;32.13;;;14.52;;
61635;SDS011;59438;45.014;39.006;2023-01-28T10:23:38;42.55;;;16.63;;
61635;SDS011;59438;45.014;39.006;2023-01-28T10:26:15;36.83;;;15.57;;
61635;SDS011;59438;45.014;39.006;2023-01-28T10:28:47;34.67;;;15.07;;
61635;SDS011;59438;45.014;39.006;2023-01-28T10:33:46;30.23;;;13.88;;
61635;SDS011;59438;45.014;39.006;2023-01-28T10:36:12;33.08;;;14.25;;
61635;SDS011;59438;45.014;39.006;2023-01-28T10:38:40;40.40;;;15.13;;
61635;SDS011;59438;45.014;39.006;2023-01-28T10:41:08;41.53;;;16.38;;
61635;SDS011;59438;45.014;39.006;2023-01-28T10:43:38;36.85;;;15.40;;
61635;SDS011;59438;45.014;39.006;2023-01-28T10:46:08;30.95;;;14.15;;
61635;SDS011;59438;45.014;39.006;2023-01-28T10:48:40;33.50;;;13.88;;
61635;SDS011;59438;45.014;39.006;2023-01-28T10:51:12;34.53;;;15.20;;
61635;SDS011;59438;45.014;39.006;2023-01-28T10:53:39;36.67;;;13.70;;
61635;SDS011;59438;45.014;39.006;2023-01-28T10:56:07;30.10;;;13.85;;
61635;SDS011;59438;45.014;39.006;2023-01-28T10:58:45;34.17;;;14.27;;
61635;SDS011;59438;45.014;39.006;2023-01-28T11:01:15;33.67;;;14.10;;
61635;SDS011;59438;45.014;39.006;2023-01-28T11:03:50;29.00;;;13.13;;
61635;SDS011;59438;45.014;39.006;2023-01-28T11:06:25;30.83;;;13.80;;
61635;SDS011;59438;45.014;39.006;2023-01-28T11:08:52;30.63;;;13.77;;
61635;SDS011;59438;45.014;39.006;2023-01-28T11:11:21;29.00;;;13.50;;
61635;SDS011;59438;45.014;39.006;2023-01-28T11:13:50;53.95;;;25.63;;
61635;SDS011;59438;45.014;39.006;2023-01-28T11:16:17;41.33;;;17.80;;
61635;SDS011;59438;45.014;39.006;2023-01-28T11:18:46;36.38;;;16.88;;
61635;SDS011;59438;45.014;39.006;2023-01-28T11:21:17;33.83;;;15.13;;
61635;SDS011;59438;45.014;39.006;2023-01-28T11:23:49;40.38;;;15.35;;
61635;SDS011;59438;45.014;39.006;2023-01-28T11:26:18;34.88;;;15.40;;
61635;SDS011;59438;45.014;39.006;2023-01-28T11:28:47;34.90;;;15.10;;
61635;SDS011;59438;45.014;39.006;2023-01-28T11:31:15;34.60;;;13.15;;
61635;SDS011;59438;45.014;39.006;2023-01-28T11:33:43;29.55;;;13.48;;
61635;SDS011;59438;45.014;39.006;2023-01-28T11:38:52;26.42;;;11.10;;
61635;SDS011;59438;45.014;39.006;2023-01-28T11:41:22;38.90;;;15.02;;
61635;SDS011;59438;45.014;39.006;2023-01-28T11:43:52;31.50;;;14.05;;
61635;SDS011;59438;45.014;39.006;2023-01-28T11:46:23;37.38;;;15.88;;
61635;SDS011;59438;45.014;39.006;2023-01-28T11:49:13;33.60;;;16.42;;
61635;SDS011;59438;45.014;39.006;2023-01-28T11:51:51;37.40;;;18.02;;
61635;SDS011;59438;45.014;39.006;2023-01-28T11:54:26;48.22;;;26.13;;
61635;SDS011;59438;45.014;39.006;2023-01-28T11:57:06;28.65;;;14.98;;
61635;SDS011;59438;45.014;39.006;2023-01-28T11:59:50;35.63;;;15.20;;
61635;SDS011;59438;45.014;39.006;2023-01-28T12:02:28;34.13;;;16.73;;
61635;SDS011;59438;45.014;39.006;2023-01-28T12:05:12;31.48;;;15.13;;
61635;SDS011;59438;45.014;39.006;2023-01-28T12:07:48;27.67;;;13.95;;
61635;SDS011;59438;45.014;39.006;2023-01-28T12:10:23;32.22;;;14.02;;
61635;SDS011;59438;45.014;39.006;2023-01-28T12:13:04;36.08;;;16.38;;
61635;SDS011;59438;45.014;39.006;2023-01-28T12:15:53;38.33;;;16.30;;
61635;SDS011;59438;45.014;39.006;2023-01-28T12:18:36;34.15;;;15.07;;
61635;SDS011;59438;45.014;39.006;2023-01-28T12:21:15;34.47;;;14.25;;
61635;SDS011;59438;45.014;39.006;2023-01-28T12:23:53;26.98;;;14.25;;
61635;SDS011;59438;45.014;39.006;2023-01-28T12:26:38;34.83;;;14.80;;
61635;SDS011;59438;45.014;39.006;2023-01-28T12:29:19;29.02;;;14.10;;
61635;SDS011;59438;45.014;39.006;2023-01-28T12:31:55;32.88;;;13.90;;
61635;SDS011;59438;45.014;39.006;2023-01-28T12:34:40;27.13;;;12.68;;
61635;SDS011;59438;45.014;39.006;2023-01-28T12:37:22;32.90;;;14.48;;
61635;SDS011;59438;45.014;39.006;2023-01-28T12:40:04;29.73;;;13.70;;
61635;SDS011;59438;45.014;39.006;2023-01-28T12:42:44;31.13;;;14.45;;
61635;SDS011;59438;45.014;39.006;2023-01-28T12:45:15;33.95;;;15.15;;
61635;SDS011;59438;45.014;39.006;2023-01-28T12:47:47;34.80;;;15.68;;
61635;SDS011;59438;45.014;39.006;2023-01-28T12:50:19;32.63;;;16.52;;
61635;SDS011;59438;45.014;39.006;2023-01-28T12:52:50;35.65;;;16.45;;
61635;SDS011;59438;45.014;39.006;2023-01-28T12:55:21;50.17;;;24.17;;
61635;SDS011;59438;45.014;39.006;2023-01-28T12:58:02;44.92;;;21.08;;
61635;SDS011;59438;45.014;39.006;2023-01-28T13:03:01;37.20;;;18.05;;
61635;SDS011;59438;45.014;39.006;2023-01-28T13:05:37;36.33;;;17.13;;
61635;SDS011;59438;45.014;39.006;2023-01-28T13:08:09;37.22;;;17.02;;
61635;SDS011;59438;45.014;39.006;2023-01-28T13:10:39;39.88;;;16.77;;
61635;SDS011;59438;45.014;39.006;2023-01-28T13:13:11;48.58;;;20.38;;
61635;SDS011;59438;45.014;39.006;2023-01-28T13:15:41;38.97;;;18.80;;
61635;SDS011;59438;45.014;39.006;2023-01-28T13:20:58;50.50;;;22.20;;
61635;SDS011;59438;45.014;39.006;2023-01-28T13:23:35;284.75;;;64.03;;
61635;SDS011;59438;45.014;39.006;2023-01-28T13:29:07;64.70;;;26.27;;
61635;SDS011;59438;45.014;39.006;2023-01-28T13:31:43;48.25;;;21.13;;
61635;SDS011;59438;45.014;39.006;2023-01-28T13:34:24;46.83;;;24.17;;
61635;SDS011;59438;45.014;39.006;2023-01-28T13:36:52;39.20;;;22.10;;
61635;SDS011;59438;45.014;39.006;2023-01-28T13:39:20;43.47;;;20.65;;
61635;SDS011;59438;45.014;39.006;2023-01-28T13:41:48;43.47;;;19.35;;
61635;SDS011;59438;45.014;39.006;2023-01-28T13:44:19;45.20;;;25.08;;
61635;SDS011;59438;45.014;39.006;2023-01-28T13:46:51;51.67;;;23.88;;
61635;SDS011;59438;45.014;39.006;2023-01-28T13:49:20;57.55;;;24.80;;
61635;SDS011;59438;45.014;39.006;2023-01-28T13:51:55;38.45;;;19.83;;
61635;SDS011;59438;45.014;39.006;2023-01-28T13:54:29;41.03;;;21.73;;
61635;SDS011;59438;45.014;39.006;2023-01-28T13:57:06;40.17;;;20.02;;
61635;SDS011;59438;45.014;39.006;2023-01-28T13:59:50;37.17;;;16.92;;
61635;SDS011;59438;45.014;39.006;2023-01-28T14:02:41;43.47;;;20.95;;
61635;SDS011;59438;45.014;39.006;2023-01-28T14:05:30;93.43;;;45.40;;
61635;SDS011;59438;45.014;39.006;2023-01-28T14:11:27;84.78;;;39.08;;
61635;SDS011;59438;45.014;39.006;2023-01-28T14:14:17;58.55;;;28.65;;
61635;SDS011;59438;45.014;39.006;2023-01-28T14:17:01;45.78;;;22.70;;
61635;SDS011;59438;45.014;39.006;2023-01-28T14:19:35;43.88;;;20.52;;
61635;SDS011;59438;45.014;39.006;2023-01-28T14:22:05;51.25;;;26.25;;
61635;SDS011;59438;45.014;39.006;2023-01-28T14:24:35;45.47;;;22.40;;
61635;SDS011;59438;45.014;39.006;2023-01-28T14:27:04;38.53;;;19.35;;
61635;SDS011;59438;45.014;39.006;2023-01-28T14:29:44;69.95;;;36.58;;
61635;SDS011;59438;45.014;39.006;2023-01-28T14:32:21;49.97;;;24.80;;
61635;SDS011;59438;45.014;39.006;2023-01-28T14:34:51;90.28;;;42.40;;
61635;SDS011;59438;45.014;39.006;2023-01-28T14:37:18;88.88;;;39.72;;
61635;SDS011;59438;45.014;39.006;2023-01-28T14:39:47;63.35;;;30.35;;
61635;SDS011;59438;45.014;39.006;2023-01-28T14:42:18;46.97;;;22.55;;
61635;SDS011;59438;45.014;39.006;2023-01-28T14:44:47;57.35;;;27.42;;
61635;SDS011;59438;45.014;39.006;2023-01-28T14:47:31;189.13;;;77.68;;
61635;SDS011;59438;45.014;39.006;2023-01-28T14:50:18;200.40;;;96.85;;
61635;SDS011;59438;45.014;39.006;2023-01-28T14:53:00;65.45;;;32.55;;